sensor_id;sensor_type;location;lat;lon;timestamp;P1;durP1;ratioP1;P2;durP2;ratioP2
37164;SDS011;23057;48.554;14.454;2022-11-18T00:01:37;5.18;;;3.42;;
37164;SDS011;23057;48.554;14.454;2022-11-18T00:04:07;8.00;;;3.25;;
37164;SDS011;23057;48.554;14.454;2022-11-18T00:06:39;8.05;;;3.25;;
37164;SDS011;23057;48.554;14.454;2022-11-18T00:09:10;5.60;;;3.78;;
37164;SDS011;23057;48.554;14.454;2022-11-18T00:11:41;4.13;;;3.20;;
37164;SDS011;23057;48.554;14.454;2022-11-18T00:14:30;8.98;;;4.68;;
37164;SDS011;23057;48.554;14.454;2022-11-18T00:17:02;5.68;;;3.83;;
37164;SDS011;23057;48.554;14.454;2022-11-18T00:19:36;4.88;;;3.80;;
37164;SDS011;23057;48.554;14.454;2022-11-18T00:22:10;8.30;;;3.97;;
37164;SDS011;23057;48.554;14.454;2022-11-18T00:24:42;6.45;;;4.45;;
37164;SDS011;23057;48.554;14.454;2022-11-18T00:27:13;7.18;;;4.28;;
37164;SDS011;23057;48.554;14.454;2022-11-18T00:29:44;5.18;;;3.78;;
37164;SDS011;23057;48.554;14.454;2022-11-18T00:32:15;8.45;;;3.70;;
37164;SDS011;23057;48.554;14.454;2022-11-18T00:34:45;5.47;;;3.58;;
37164;SDS011;23057;48.554;14.454;2022-11-18T00:37:16;4.28;;;2.78;;
37164;SDS011;23057;48.554;14.454;2022-11-18T00:39:47;3.20;;;2.47;;
37164;SDS011;23057;48.554;14.454;2022-11-18T00:42:18;3.97;;;2.80;;
37164;SDS011;23057;48.554;14.454;2022-11-18T00:45:07;3.58;;;2.90;;
37164;SDS011;23057;48.554;14.454;2022-11-18T00:47:39;4.35;;;2.90;;
37164;SDS011;23057;48.554;14.454;2022-11-18T00:50:10;4.57;;;3.15;;
37164;SDS011;23057;48.554;14.454;2022-11-18T00:52:41;4.10;;;2.97;;
37164;SDS011;23057;48.554;14.454;2022-11-18T00:55:12;4.15;;;3.17;;
37164;SDS011;23057;48.554;14.454;2022-11-18T00:57:43;3.25;;;2.53;;
37164;SDS011;23057;48.554;14.454;2022-11-18T01:00:14;2.83;;;2.42;;
37164;SDS011;23057;48.554;14.454;2022-11-18T01:02:46;3.85;;;2.35;;
37164;SDS011;23057;48.554;14.454;2022-11-18T01:05:17;3.83;;;3.03;;
37164;SDS011;23057;48.554;14.454;2022-11-18T01:07:48;4.47;;;3.15;;
37164;SDS011;23057;48.554;14.454;2022-11-18T01:10:19;3.35;;;2.80;;
37164;SDS011;23057;48.554;14.454;2022-11-18T01:12:50;4.05;;;2.88;;
37164;SDS011;23057;48.554;14.454;2022-11-18T01:15:40;4.00;;;2.83;;
37164;SDS011;23057;48.554;14.454;2022-11-18T01:18:15;4.55;;;2.80;;
37164;SDS011;23057;48.554;14.454;2022-11-18T01:20:49;5.05;;;2.95;;
37164;SDS011;23057;48.554;14.454;2022-11-18T01:23:20;3.80;;;2.67;;
37164;SDS011;23057;48.554;14.454;2022-11-18T01:25:51;6.25;;;3.05;;
37164;SDS011;23057;48.554;14.454;2022-11-18T01:28:24;4.95;;;2.40;;
37164;SDS011;23057;48.554;14.454;2022-11-18T01:30:58;6.10;;;3.42;;
37164;SDS011;23057;48.554;14.454;2022-11-18T01:33:45;3.55;;;2.80;;
37164;SDS011;23057;48.554;14.454;2022-11-18T01:36:20;3.60;;;2.55;;
37164;SDS011;23057;48.554;14.454;2022-11-18T01:38:57;5.00;;;3.28;;
37164;SDS011;23057;48.554;14.454;2022-11-18T01:41:28;3.40;;;2.67;;
37164;SDS011;23057;48.554;14.454;2022-11-18T01:44:00;4.00;;;2.70;;
37164;SDS011;23057;48.554;14.454;2022-11-18T01:47:26;3.97;;;2.67;;
37164;SDS011;23057;48.554;14.454;2022-11-18T01:50:07;4.90;;;2.55;;
37164;SDS011;23057;48.554;14.454;2022-11-18T01:52:41;4.57;;;2.80;;
37164;SDS011;23057;48.554;14.454;2022-11-18T01:55:15;4.15;;;2.97;;
37164;SDS011;23057;48.554;14.454;2022-11-18T01:58:05;5.03;;;2.97;;
37164;SDS011;23057;48.554;14.454;2022-11-18T02:00:44;4.72;;;3.20;;
37164;SDS011;23057;48.554;14.454;2022-11-18T02:03:15;4.45;;;3.17;;
37164;SDS011;23057;48.554;14.454;2022-11-18T02:05:48;4.13;;;3.15;;
37164;SDS011;23057;48.554;14.454;2022-11-18T02:08:22;4.60;;;2.95;;
37164;SDS011;23057;48.554;14.454;2022-11-18T02:10:55;4.85;;;3.30;;
37164;SDS011;23057;48.554;14.454;2022-11-18T02:13:26;3.85;;;2.83;;
37164;SDS011;23057;48.554;14.454;2022-11-18T02:21:56;6.43;;;3.20;;
37164;SDS011;23057;48.554;14.454;2022-11-18T02:31:29;4.63;;;3.20;;
37164;SDS011;23057;48.554;14.454;2022-11-18T02:34:43;4.30;;;2.92;;
37164;SDS011;23057;48.554;14.454;2022-11-18T02:37:38;3.80;;;2.83;;
37164;SDS011;23057;48.554;14.454;2022-11-18T02:40:52;2.03;;;1.83;;
37164;SDS011;23057;48.554;14.454;2022-11-18T02:43:34;4.70;;;2.65;;
37164;SDS011;23057;48.554;14.454;2022-11-18T02:46:19;3.90;;;2.78;;
37164;SDS011;23057;48.554;14.454;2022-11-18T02:49:15;4.22;;;3.03;;
37164;SDS011;23057;48.554;14.454;2022-11-18T02:51:57;4.47;;;3.05;;
37164;SDS011;23057;48.554;14.454;2022-11-18T02:54:30;5.57;;;3.40;;
37164;SDS011;23057;48.554;14.454;2022-11-18T02:57:07;7.68;;;3.35;;
37164;SDS011;23057;48.554;14.454;2022-11-18T02:59:39;4.75;;;3.22;;
37164;SDS011;23057;48.554;14.454;2022-11-18T03:02:14;4.32;;;3.13;;
37164;SDS011;23057;48.554;14.454;2022-11-18T03:07:30;4.60;;;3.10;;
37164;SDS011;23057;48.554;14.454;2022-11-18T03:10:09;4.55;;;3.03;;
37164;SDS011;23057;48.554;14.454;2022-11-18T03:18:39;4.00;;;2.53;;
37164;SDS011;23057;48.554;14.454;2022-11-18T03:21:29;3.53;;;2.60;;
37164;SDS011;23057;48.554;14.454;2022-11-18T03:24:31;4.57;;;3.00;;
37164;SDS011;23057;48.554;14.454;2022-11-18T03:27:10;4.95;;;4.07;;
37164;SDS011;23057;48.554;14.454;2022-11-18T03:30:06;18.10;;;3.97;;
37164;SDS011;23057;48.554;14.454;2022-11-18T03:32:44;13.05;;;3.33;;
37164;SDS011;23057;48.554;14.454;2022-11-18T03:35:36;15.00;;;3.60;;
37164;SDS011;23057;48.554;14.454;2022-11-18T03:38:17;15.45;;;3.85;;
37164;SDS011;23057;48.554;14.454;2022-11-18T03:41:02;10.02;;;3.75;;
37164;SDS011;23057;48.554;14.454;2022-11-18T03:46:24;14.57;;;3.55;;
37164;SDS011;23057;48.554;14.454;2022-11-18T03:49:08;11.80;;;3.42;;
37164;SDS011;23057;48.554;14.454;2022-11-18T03:51:56;6.70;;;3.00;;
37164;SDS011;23057;48.554;14.454;2022-11-18T03:54:40;5.50;;;2.53;;
37164;SDS011;23057;48.554;14.454;2022-11-18T03:57:22;12.63;;;2.78;;
37164;SDS011;23057;48.554;14.454;2022-11-18T04:00:08;11.07;;;3.22;;
37164;SDS011;23057;48.554;14.454;2022-11-18T04:02:45;4.53;;;2.60;;
37164;SDS011;23057;48.554;14.454;2022-11-18T04:05:19;6.25;;;2.40;;
37164;SDS011;23057;48.554;14.454;2022-11-18T04:07:55;13.13;;;2.55;;
37164;SDS011;23057;48.554;14.454;2022-11-18T04:10:36;23.38;;;2.90;;
37164;SDS011;23057;48.554;14.454;2022-11-18T04:13:22;3.50;;;2.38;;
37164;SDS011;23057;48.554;14.454;2022-11-18T04:16:01;11.13;;;2.50;;
37164;SDS011;23057;48.554;14.454;2022-11-18T04:18:33;10.35;;;2.65;;
37164;SDS011;23057;48.554;14.454;2022-11-18T04:21:04;8.02;;;2.47;;
37164;SDS011;23057;48.554;14.454;2022-11-18T04:23:35;11.55;;;3.03;;
37164;SDS011;23057;48.554;14.454;2022-11-18T04:26:06;4.03;;;2.67;;
37164;SDS011;23057;48.554;14.454;2022-11-18T04:28:39;7.25;;;2.80;;
37164;SDS011;23057;48.554;14.454;2022-11-18T04:31:09;3.47;;;2.50;;
37164;SDS011;23057;48.554;14.454;2022-11-18T04:33:40;8.32;;;3.00;;
37164;SDS011;23057;48.554;14.454;2022-11-18T04:36:11;9.98;;;2.97;;
37164;SDS011;23057;48.554;14.454;2022-11-18T04:38:42;6.20;;;2.72;;
37164;SDS011;23057;48.554;14.454;2022-11-18T04:41:13;3.88;;;2.88;;
37164;SDS011;23057;48.554;14.454;2022-11-18T04:43:44;3.72;;;2.35;;
37164;SDS011;23057;48.554;14.454;2022-11-18T04:46:15;3.13;;;2.13;;
37164;SDS011;23057;48.554;14.454;2022-11-18T04:48:46;4.10;;;2.92;;
37164;SDS011;23057;48.554;14.454;2022-11-18T04:51:16;6.03;;;2.50;;
37164;SDS011;23057;48.554;14.454;2022-11-18T04:53:47;6.78;;;2.80;;
37164;SDS011;23057;48.554;14.454;2022-11-18T04:56:18;6.10;;;2.45;;
37164;SDS011;23057;48.554;14.454;2022-11-18T04:58:49;11.23;;;2.97;;
37164;SDS011;23057;48.554;14.454;2022-11-18T05:01:20;8.63;;;2.17;;
37164;SDS011;23057;48.554;14.454;2022-11-18T05:03:51;19.42;;;3.00;;
37164;SDS011;23057;48.554;14.454;2022-11-18T05:06:22;3.22;;;2.35;;
37164;SDS011;23057;48.554;14.454;2022-11-18T05:08:53;14.85;;;3.28;;
37164;SDS011;23057;48.554;14.454;2022-11-18T05:11:27;4.65;;;2.72;;
37164;SDS011;23057;48.554;14.454;2022-11-18T05:14:16;21.25;;;3.20;;
37164;SDS011;23057;48.554;14.454;2022-11-18T05:16:47;27.35;;;3.95;;
37164;SDS011;23057;48.554;14.454;2022-11-18T05:19:18;40.30;;;4.07;;
37164;SDS011;23057;48.554;14.454;2022-11-18T05:21:49;11.38;;;2.83;;
37164;SDS011;23057;48.554;14.454;2022-11-18T05:24:20;25.92;;;3.15;;
37164;SDS011;23057;48.554;14.454;2022-11-18T05:26:54;30.38;;;3.03;;
37164;SDS011;23057;48.554;14.454;2022-11-18T05:29:25;21.30;;;2.97;;
37164;SDS011;23057;48.554;14.454;2022-11-18T05:31:56;48.13;;;3.90;;
37164;SDS011;23057;48.554;14.454;2022-11-18T05:34:27;37.03;;;3.00;;
37164;SDS011;23057;48.554;14.454;2022-11-18T05:36:58;28.70;;;3.55;;
37164;SDS011;23057;48.554;14.454;2022-11-18T05:39:30;34.78;;;3.63;;
37164;SDS011;23057;48.554;14.454;2022-11-18T05:42:02;21.35;;;2.58;;
37164;SDS011;23057;48.554;14.454;2022-11-18T05:44:52;10.90;;;2.38;;
37164;SDS011;23057;48.554;14.454;2022-11-18T05:47:23;12.38;;;2.05;;
37164;SDS011;23057;48.554;14.454;2022-11-18T05:49:54;9.13;;;2.00;;
37164;SDS011;23057;48.554;14.454;2022-11-18T05:52:24;6.80;;;1.83;;
37164;SDS011;23057;48.554;14.454;2022-11-18T05:54:57;24.60;;;2.33;;
37164;SDS011;23057;48.554;14.454;2022-11-18T05:57:28;5.15;;;2.08;;
37164;SDS011;23057;48.554;14.454;2022-11-18T05:59:58;7.50;;;2.92;;
37164;SDS011;23057;48.554;14.454;2022-11-18T06:02:29;21.45;;;5.22;;
37164;SDS011;23057;48.554;14.454;2022-11-18T06:05:00;43.60;;;15.70;;
37164;SDS011;23057;48.554;14.454;2022-11-18T06:07:36;24.55;;;8.65;;
37164;SDS011;23057;48.554;14.454;2022-11-18T06:10:15;21.90;;;3.70;;
37164;SDS011;23057;48.554;14.454;2022-11-18T06:12:57;30.27;;;3.72;;
37164;SDS011;23057;48.554;14.454;2022-11-18T06:15:39;43.88;;;5.97;;
37164;SDS011;23057;48.554;14.454;2022-11-18T06:18:18;7.28;;;3.05;;
37164;SDS011;23057;48.554;14.454;2022-11-18T06:20:59;16.42;;;3.58;;
37164;SDS011;23057;48.554;14.454;2022-11-18T06:23:36;22.75;;;3.50;;
37164;SDS011;23057;48.554;14.454;2022-11-18T06:26:12;25.77;;;5.20;;
37164;SDS011;23057;48.554;14.454;2022-11-18T06:28:46;8.75;;;2.72;;
37164;SDS011;23057;48.554;14.454;2022-11-18T06:31:18;30.77;;;3.80;;
37164;SDS011;23057;48.554;14.454;2022-11-18T06:33:49;13.80;;;4.07;;
37164;SDS011;23057;48.554;14.454;2022-11-18T06:36:20;22.60;;;7.55;;
37164;SDS011;23057;48.554;14.454;2022-11-18T06:38:51;15.98;;;3.95;;
37164;SDS011;23057;48.554;14.454;2022-11-18T06:41:22;12.05;;;7.03;;
37164;SDS011;23057;48.554;14.454;2022-11-18T06:43:52;8.45;;;5.97;;
37164;SDS011;23057;48.554;14.454;2022-11-18T06:46:23;8.90;;;4.13;;
37164;SDS011;23057;48.554;14.454;2022-11-18T06:49:13;25.48;;;4.07;;
37164;SDS011;23057;48.554;14.454;2022-11-18T06:51:44;17.95;;;7.47;;
37164;SDS011;23057;48.554;14.454;2022-11-18T06:54:15;11.88;;;4.88;;
37164;SDS011;23057;48.554;14.454;2022-11-18T06:56:46;9.63;;;4.32;;
37164;SDS011;23057;48.554;14.454;2022-11-18T06:59:17;7.97;;;5.07;;
37164;SDS011;23057;48.554;14.454;2022-11-18T07:01:52;30.00;;;12.02;;
37164;SDS011;23057;48.554;14.454;2022-11-18T07:04:23;19.52;;;6.90;;
37164;SDS011;23057;48.554;14.454;2022-11-18T07:06:54;21.05;;;6.60;;
37164;SDS011;23057;48.554;14.454;2022-11-18T07:09:25;21.05;;;5.85;;
37164;SDS011;23057;48.554;14.454;2022-11-18T07:11:55;15.93;;;6.45;;
37164;SDS011;23057;48.554;14.454;2022-11-18T07:14:26;22.02;;;5.47;;
37164;SDS011;23057;48.554;14.454;2022-11-18T07:16:57;18.65;;;10.00;;
37164;SDS011;23057;48.554;14.454;2022-11-18T07:19:28;12.93;;;7.93;;
37164;SDS011;23057;48.554;14.454;2022-11-18T07:21:59;30.13;;;7.50;;
37164;SDS011;23057;48.554;14.454;2022-11-18T07:24:30;35.45;;;8.05;;
37164;SDS011;23057;48.554;14.454;2022-11-18T07:27:01;39.55;;;14.20;;
37164;SDS011;23057;48.554;14.454;2022-11-18T07:29:32;39.25;;;9.30;;
37164;SDS011;23057;48.554;14.454;2022-11-18T07:32:02;26.55;;;9.40;;
37164;SDS011;23057;48.554;14.454;2022-11-18T07:34:34;45.67;;;8.80;;
37164;SDS011;23057;48.554;14.454;2022-11-18T07:37:04;37.75;;;8.02;;
37164;SDS011;23057;48.554;14.454;2022-11-18T07:39:35;28.92;;;8.65;;
37164;SDS011;23057;48.554;14.454;2022-11-18T07:42:07;53.78;;;9.70;;
37164;SDS011;23057;48.554;14.454;2022-11-18T07:44:38;67.78;;;10.88;;
37164;SDS011;23057;48.554;14.454;2022-11-18T07:47:09;64.35;;;9.77;;
37164;SDS011;23057;48.554;14.454;2022-11-18T07:49:40;36.30;;;9.15;;
37164;SDS011;23057;48.554;14.454;2022-11-18T07:52:11;27.30;;;8.75;;
37164;SDS011;23057;48.554;14.454;2022-11-18T07:54:42;29.38;;;9.10;;
37164;SDS011;23057;48.554;14.454;2022-11-18T07:57:12;21.67;;;8.52;;
37164;SDS011;23057;48.554;14.454;2022-11-18T07:59:43;30.55;;;9.30;;
37164;SDS011;23057;48.554;14.454;2022-11-18T08:02:14;20.83;;;8.38;;
37164;SDS011;23057;48.554;14.454;2022-11-18T08:04:45;19.00;;;7.70;;
37164;SDS011;23057;48.554;14.454;2022-11-18T08:07:16;13.13;;;7.80;;
37164;SDS011;23057;48.554;14.454;2022-11-18T08:09:47;14.27;;;7.75;;
37164;SDS011;23057;48.554;14.454;2022-11-18T08:12:17;12.40;;;8.18;;
37164;SDS011;23057;48.554;14.454;2022-11-18T08:14:48;12.95;;;7.40;;
37164;SDS011;23057;48.554;14.454;2022-11-18T08:17:19;15.60;;;8.38;;
37164;SDS011;23057;48.554;14.454;2022-11-18T08:19:50;15.07;;;8.20;;
37164;SDS011;23057;48.554;14.454;2022-11-18T08:22:21;13.02;;;7.50;;
37164;SDS011;23057;48.554;14.454;2022-11-18T08:24:52;12.43;;;7.00;;
37164;SDS011;23057;48.554;14.454;2022-11-18T08:27:22;12.10;;;6.03;;
37164;SDS011;23057;48.554;14.454;2022-11-18T08:29:53;12.25;;;6.13;;
37164;SDS011;23057;48.554;14.454;2022-11-18T08:32:24;11.38;;;6.45;;
37164;SDS011;23057;48.554;14.454;2022-11-18T08:34:55;10.95;;;5.95;;
37164;SDS011;23057;48.554;14.454;2022-11-18T08:37:26;8.10;;;4.57;;
37164;SDS011;23057;48.554;14.454;2022-11-18T08:39:57;8.93;;;5.60;;
37164;SDS011;23057;48.554;14.454;2022-11-18T08:42:27;8.98;;;4.70;;
37164;SDS011;23057;48.554;14.454;2022-11-18T08:44:59;8.38;;;4.68;;
37164;SDS011;23057;48.554;14.454;2022-11-18T08:47:30;5.55;;;3.70;;
37164;SDS011;23057;48.554;14.454;2022-11-18T08:50:01;7.60;;;4.45;;
37164;SDS011;23057;48.554;14.454;2022-11-18T08:52:39;3.30;;;2.13;;
37164;SDS011;23057;48.554;14.454;2022-11-18T08:55:10;2.60;;;1.90;;
37164;SDS011;23057;48.554;14.454;2022-11-18T08:57:40;5.78;;;1.98;;
37164;SDS011;23057;48.554;14.454;2022-11-18T09:00:11;2.22;;;1.88;;
37164;SDS011;23057;48.554;14.454;2022-11-18T09:02:43;2.40;;;1.40;;
37164;SDS011;23057;48.554;14.454;2022-11-18T09:05:15;3.30;;;1.80;;
37164;SDS011;23057;48.554;14.454;2022-11-18T09:07:46;2.55;;;1.40;;
37164;SDS011;23057;48.554;14.454;2022-11-18T09:10:17;2.40;;;1.48;;
37164;SDS011;23057;48.554;14.454;2022-11-18T09:12:48;2.08;;;1.40;;
37164;SDS011;23057;48.554;14.454;2022-11-18T09:15:18;2.08;;;1.50;;
37164;SDS011;23057;48.554;14.454;2022-11-18T09:17:49;2.47;;;1.35;;
37164;SDS011;23057;48.554;14.454;2022-11-18T09:20:20;1.83;;;1.20;;
37164;SDS011;23057;48.554;14.454;2022-11-18T09:22:52;2.42;;;1.73;;
37164;SDS011;23057;48.554;14.454;2022-11-18T09:25:23;3.15;;;1.42;;
37164;SDS011;23057;48.554;14.454;2022-11-18T09:27:53;1.77;;;1.15;;
37164;SDS011;23057;48.554;14.454;2022-11-18T09:30:26;5.68;;;2.15;;
37164;SDS011;23057;48.554;14.454;2022-11-18T09:32:56;3.67;;;1.92;;
37164;SDS011;23057;48.554;14.454;2022-11-18T09:35:27;4.72;;;2.85;;
37164;SDS011;23057;48.554;14.454;2022-11-18T09:37:58;1.48;;;1.10;;
37164;SDS011;23057;48.554;14.454;2022-11-18T09:40:37;3.42;;;1.92;;
37164;SDS011;23057;48.554;14.454;2022-11-18T09:44:00;1.65;;;1.00;;
37164;SDS011;23057;48.554;14.454;2022-11-18T09:50:02;7.53;;;3.65;;
37164;SDS011;23057;48.554;14.454;2022-11-18T09:55:55;2.30;;;1.20;;
37164;SDS011;23057;48.554;14.454;2022-11-18T09:58:31;5.68;;;1.95;;
37164;SDS011;23057;48.554;14.454;2022-11-18T10:03:48;1.70;;;1.05;;
37164;SDS011;23057;48.554;14.454;2022-11-18T10:06:21;3.53;;;1.58;;
37164;SDS011;23057;48.554;14.454;2022-11-18T10:09:02;12.65;;;4.47;;
37164;SDS011;23057;48.554;14.454;2022-11-18T10:18:39;2.38;;;1.38;;
37164;SDS011;23057;48.554;14.454;2022-11-18T10:21:33;6.03;;;3.30;;
37164;SDS011;23057;48.554;14.454;2022-11-18T10:24:23;1.55;;;1.10;;
37164;SDS011;23057;48.554;14.454;2022-11-18T10:27:07;7.28;;;2.80;;
37164;SDS011;23057;48.554;14.454;2022-11-18T10:29:43;2.00;;;1.17;;
37164;SDS011;23057;48.554;14.454;2022-11-18T10:32:24;1.83;;;1.20;;
37164;SDS011;23057;48.554;14.454;2022-11-18T10:34:57;6.22;;;2.80;;
37164;SDS011;23057;48.554;14.454;2022-11-18T10:37:29;3.65;;;2.00;;
37164;SDS011;23057;48.554;14.454;2022-11-18T10:40:08;2.78;;;1.55;;
37164;SDS011;23057;48.554;14.454;2022-11-18T10:42:59;3.90;;;2.05;;
37164;SDS011;23057;48.554;14.454;2022-11-18T10:45:30;18.60;;;6.32;;
37164;SDS011;23057;48.554;14.454;2022-11-18T10:48:35;13.75;;;7.82;;
37164;SDS011;23057;48.554;14.454;2022-11-18T10:50:59;4.13;;;2.65;;
37164;SDS011;23057;48.554;14.454;2022-11-18T10:54:03;36.58;;;19.65;;
37164;SDS011;23057;48.554;14.454;2022-11-18T10:56:49;39.70;;;16.17;;
37164;SDS011;23057;48.554;14.454;2022-11-18T11:05:20;14.90;;;7.88;;
37164;SDS011;23057;48.554;14.454;2022-11-18T11:08:03;9.50;;;5.03;;
37164;SDS011;23057;48.554;14.454;2022-11-18T11:10:55;7.70;;;3.47;;
37164;SDS011;23057;48.554;14.454;2022-11-18T11:13:29;4.82;;;2.60;;
37164;SDS011;23057;48.554;14.454;2022-11-18T11:16:04;4.05;;;2.60;;
37164;SDS011;23057;48.554;14.454;2022-11-18T11:18:36;5.78;;;3.83;;
37164;SDS011;23057;48.554;14.454;2022-11-18T11:21:14;4.57;;;2.78;;
37164;SDS011;23057;48.554;14.454;2022-11-18T11:23:51;4.90;;;3.13;;
37164;SDS011;23057;48.554;14.454;2022-11-18T11:29:33;3.35;;;2.13;;
37164;SDS011;23057;48.554;14.454;2022-11-18T11:39:38;2.05;;;1.42;;
37164;SDS011;23057;48.554;14.454;2022-11-18T11:55:21;1.92;;;1.20;;
37164;SDS011;23057;48.554;14.454;2022-11-18T12:07:20;1.67;;;1.08;;
37164;SDS011;23057;48.554;14.454;2022-11-18T12:13:30;4.05;;;1.48;;
37164;SDS011;23057;48.554;14.454;2022-11-18T12:16:24;5.13;;;1.13;;
37164;SDS011;23057;48.554;14.454;2022-11-18T12:19:11;14.50;;;6.15;;
37164;SDS011;23057;48.554;14.454;2022-11-18T12:21:53;7.13;;;4.18;;
37164;SDS011;23057;48.554;14.454;2022-11-18T12:24:39;11.82;;;5.28;;
37164;SDS011;23057;48.554;14.454;2022-11-18T12:30:16;5.00;;;2.53;;
37164;SDS011;23057;48.554;14.454;2022-11-18T12:32:48;4.68;;;2.10;;
37164;SDS011;23057;48.554;14.454;2022-11-18T12:38:04;5.87;;;1.17;;
37164;SDS011;23057;48.554;14.454;2022-11-18T12:40:59;10.07;;;5.03;;
37164;SDS011;23057;48.554;14.454;2022-11-18T12:51:57;3.47;;;1.13;;
37164;SDS011;23057;48.554;14.454;2022-11-18T12:54:37;2.90;;;1.63;;
37164;SDS011;23057;48.554;14.454;2022-11-18T12:57:18;5.73;;;3.57;;
37164;SDS011;23057;48.554;14.454;2022-11-18T13:03:22;10.32;;;3.83;;
37164;SDS011;23057;48.554;14.454;2022-11-18T13:05:58;7.15;;;2.75;;
37164;SDS011;23057;48.554;14.454;2022-11-18T13:08:54;7.80;;;4.22;;
37164;SDS011;23057;48.554;14.454;2022-11-18T13:11:45;22.08;;;10.45;;
37164;SDS011;23057;48.554;14.454;2022-11-18T13:14:28;4.93;;;2.63;;
37164;SDS011;23057;48.554;14.454;2022-11-18T13:17:31;11.13;;;5.53;;
37164;SDS011;23057;48.554;14.454;2022-11-18T13:23:18;5.03;;;3.30;;
37164;SDS011;23057;48.554;14.454;2022-11-18T13:26:22;7.20;;;3.53;;
37164;SDS011;23057;48.554;14.454;2022-11-18T13:34:54;1.38;;;1.27;;
37164;SDS011;23057;48.554;14.454;2022-11-18T13:38:01;2.30;;;0.70;;
37164;SDS011;23057;48.554;14.454;2022-11-18T13:40:43;2.75;;;1.23;;
37164;SDS011;23057;48.554;14.454;2022-11-18T13:43:34;1.63;;;0.80;;
37164;SDS011;23057;48.554;14.454;2022-11-18T13:46:07;1.92;;;1.13;;
37164;SDS011;23057;48.554;14.454;2022-11-18T13:48:52;1.10;;;0.50;;
37164;SDS011;23057;48.554;14.454;2022-11-18T13:51:28;2.22;;;1.33;;
37164;SDS011;23057;48.554;14.454;2022-11-18T13:54:00;0.65;;;0.60;;
37164;SDS011;23057;48.554;14.454;2022-11-18T13:56:31;0.50;;;0.50;;
37164;SDS011;23057;48.554;14.454;2022-11-18T13:59:03;1.13;;;0.77;;
37164;SDS011;23057;48.554;14.454;2022-11-18T14:01:34;4.32;;;2.33;;
37164;SDS011;23057;48.554;14.454;2022-11-18T14:04:06;5.80;;;3.65;;
37164;SDS011;23057;48.554;14.454;2022-11-18T14:10:06;7.72;;;5.88;;
37164;SDS011;23057;48.554;14.454;2022-11-18T14:12:45;5.07;;;3.75;;
37164;SDS011;23057;48.554;14.454;2022-11-18T14:18:01;26.73;;;13.50;;
37164;SDS011;23057;48.554;14.454;2022-11-18T14:20:33;28.63;;;17.10;;
37164;SDS011;23057;48.554;14.454;2022-11-18T14:23:04;4.10;;;3.13;;
37164;SDS011;23057;48.554;14.454;2022-11-18T14:25:46;4.75;;;3.22;;
37164;SDS011;23057;48.554;14.454;2022-11-18T14:30:56;7.88;;;5.82;;
37164;SDS011;23057;48.554;14.454;2022-11-18T14:36:56;2.25;;;1.70;;
37164;SDS011;23057;48.554;14.454;2022-11-18T14:39:28;5.45;;;4.05;;
37164;SDS011;23057;48.554;14.454;2022-11-18T14:42:01;1.77;;;1.60;;
37164;SDS011;23057;48.554;14.454;2022-11-18T14:44:35;2.08;;;1.73;;
37164;SDS011;23057;48.554;14.454;2022-11-18T14:47:12;1.90;;;1.65;;
37164;SDS011;23057;48.554;14.454;2022-11-18T14:49:57;0.60;;;0.60;;
37164;SDS011;23057;48.554;14.454;2022-11-18T14:52:28;0.80;;;0.73;;
37164;SDS011;23057;48.554;14.454;2022-11-18T14:54:58;0.60;;;0.60;;
37164;SDS011;23057;48.554;14.454;2022-11-18T14:57:29;0.60;;;0.60;;
37164;SDS011;23057;48.554;14.454;2022-11-18T15:00:00;0.60;;;0.60;;
37164;SDS011;23057;48.554;14.454;2022-11-18T15:02:34;2.50;;;0.68;;
37164;SDS011;23057;48.554;14.454;2022-11-18T15:05:04;0.50;;;0.50;;
37164;SDS011;23057;48.554;14.454;2022-11-18T15:07:36;0.70;;;0.70;;
37164;SDS011;23057;48.554;14.454;2022-11-18T15:10:09;0.85;;;0.70;;
37164;SDS011;23057;48.554;14.454;2022-11-18T15:12:46;2.45;;;0.60;;
37164;SDS011;23057;48.554;14.454;2022-11-18T15:15:17;1.25;;;0.70;;
37164;SDS011;23057;48.554;14.454;2022-11-18T15:17:47;0.55;;;0.52;;
37164;SDS011;23057;48.554;14.454;2022-11-18T15:20:19;0.73;;;0.70;;
37164;SDS011;23057;48.554;14.454;2022-11-18T15:22:52;0.63;;;0.60;;
37164;SDS011;23057;48.554;14.454;2022-11-18T15:25:23;0.60;;;0.60;;
37164;SDS011;23057;48.554;14.454;2022-11-18T15:27:53;0.50;;;0.50;;
37164;SDS011;23057;48.554;14.454;2022-11-18T15:30:24;0.68;;;0.55;;
37164;SDS011;23057;48.554;14.454;2022-11-18T15:32:55;0.63;;;0.60;;
37164;SDS011;23057;48.554;14.454;2022-11-18T15:35:26;0.50;;;0.50;;
37164;SDS011;23057;48.554;14.454;2022-11-18T15:37:57;0.60;;;0.60;;
37164;SDS011;23057;48.554;14.454;2022-11-18T15:40:28;0.57;;;0.57;;
37164;SDS011;23057;48.554;14.454;2022-11-18T15:42:59;0.93;;;0.75;;
37164;SDS011;23057;48.554;14.454;2022-11-18T15:45:30;3.40;;;2.03;;
37164;SDS011;23057;48.554;14.454;2022-11-18T15:48:01;4.65;;;2.40;;
37164;SDS011;23057;48.554;14.454;2022-11-18T15:50:31;13.40;;;5.00;;
37164;SDS011;23057;48.554;14.454;2022-11-18T15:53:02;5.32;;;2.30;;
37164;SDS011;23057;48.554;14.454;2022-11-18T15:55:33;9.82;;;4.50;;
37164;SDS011;23057;48.554;14.454;2022-11-18T15:58:04;1.95;;;1.55;;
37164;SDS011;23057;48.554;14.454;2022-11-18T16:00:35;2.40;;;1.20;;
37164;SDS011;23057;48.554;14.454;2022-11-18T16:03:06;2.80;;;1.60;;
37164;SDS011;23057;48.554;14.454;2022-11-18T16:05:36;1.65;;;1.00;;
37164;SDS011;23057;48.554;14.454;2022-11-18T16:08:07;3.92;;;1.80;;
37164;SDS011;23057;48.554;14.454;2022-11-18T16:10:38;1.75;;;1.33;;
37164;SDS011;23057;48.554;14.454;2022-11-18T16:13:28;3.45;;;2.20;;
37164;SDS011;23057;48.554;14.454;2022-11-18T16:15:58;1.70;;;1.20;;
37164;SDS011;23057;48.554;14.454;2022-11-18T16:18:29;2.10;;;1.02;;
37164;SDS011;23057;48.554;14.454;2022-11-18T16:21:00;2.22;;;1.60;;
37164;SDS011;23057;48.554;14.454;2022-11-18T16:23:31;1.98;;;1.45;;
37164;SDS011;23057;48.554;14.454;2022-11-18T16:26:02;0.80;;;0.70;;
37164;SDS011;23057;48.554;14.454;2022-11-18T16:28:33;0.60;;;0.60;;
37164;SDS011;23057;48.554;14.454;2022-11-18T16:31:04;0.75;;;0.73;;
37164;SDS011;23057;48.554;14.454;2022-11-18T16:33:55;1.73;;;1.15;;
37164;SDS011;23057;48.554;14.454;2022-11-18T16:36:26;1.00;;;0.90;;
37164;SDS011;23057;48.554;14.454;2022-11-18T16:39:01;0.70;;;0.70;;
37164;SDS011;23057;48.554;14.454;2022-11-18T16:41:42;0.82;;;0.60;;
37164;SDS011;23057;48.554;14.454;2022-11-18T16:44:15;1.95;;;0.65;;
37164;SDS011;23057;48.554;14.454;2022-11-18T16:46:47;1.52;;;0.90;;
37164;SDS011;23057;48.554;14.454;2022-11-18T16:49:23;0.82;;;0.52;;
37164;SDS011;23057;48.554;14.454;2022-11-18T16:51:56;1.25;;;0.70;;
37164;SDS011;23057;48.554;14.454;2022-11-18T16:54:28;1.20;;;0.80;;
37164;SDS011;23057;48.554;14.454;2022-11-18T16:57:02;4.78;;;0.80;;
37164;SDS011;23057;48.554;14.454;2022-11-18T16:59:33;1.08;;;0.75;;
37164;SDS011;23057;48.554;14.454;2022-11-18T17:02:04;0.60;;;0.60;;
37164;SDS011;23057;48.554;14.454;2022-11-18T17:04:35;0.93;;;0.80;;
37164;SDS011;23057;48.554;14.454;2022-11-18T17:07:07;1.85;;;0.63;;
37164;SDS011;23057;48.554;14.454;2022-11-18T17:09:38;0.70;;;0.70;;
37164;SDS011;23057;48.554;14.454;2022-11-18T17:12:09;1.10;;;0.75;;
37164;SDS011;23057;48.554;14.454;2022-11-18T17:14:40;0.60;;;0.60;;
37164;SDS011;23057;48.554;14.454;2022-11-18T17:17:11;0.73;;;0.68;;
37164;SDS011;23057;48.554;14.454;2022-11-18T17:19:41;1.23;;;0.80;;
37164;SDS011;23057;48.554;14.454;2022-11-18T17:22:12;2.17;;;1.00;;